sensor_id;sensor_type;location;lat;lon;timestamp;pressure;altitude;pressure_sealevel;temperature;humidity
46942;BME280;32676;52.630;4.896;2022-11-20T00:02:17;96691.00;;;-0.58;77.59
46942;BME280;32676;52.630;4.896;2022-11-20T00:04:44;96705.31;;;-0.52;77.80
46942;BME280;32676;52.630;4.896;2022-11-20T00:07:10;96712.03;;;-0.50;77.95
46942;BME280;32676;52.630;4.896;2022-11-20T00:09:37;96706.13;;;-0.52;77.74
46942;BME280;32676;52.630;4.896;2022-11-20T00:12:04;96684.19;;;-0.59;77.72
46942;BME280;32676;52.630;4.896;2022-11-20T00:14:31;96679.03;;;-0.59;77.67
46942;BME280;32676;52.630;4.896;2022-11-20T00:16:58;96662.16;;;-0.65;77.52
46942;BME280;32676;52.630;4.896;2022-11-20T00:19:24;96643.44;;;-0.68;77.59
46942;BME280;32676;52.630;4.896;2022-11-20T00:21:51;96626.66;;;-0.75;77.71
46942;BME280;32676;52.630;4.896;2022-11-20T00:24:19;96633.28;;;-0.71;77.80
46942;BME280;32676;52.630;4.896;2022-11-20T00:26:45;96634.97;;;-0.70;77.87
46942;BME280;32676;52.630;4.896;2022-11-20T00:29:12;96652.00;;;-0.68;78.06
46942;BME280;32676;52.630;4.896;2022-11-20T00:31:39;96663.91;;;-0.65;78.09
46942;BME280;32676;52.630;4.896;2022-11-20T00:34:06;96671.56;;;-0.64;78.02
46942;BME280;32676;52.630;4.896;2022-11-20T00:36:34;96662.38;;;-0.69;78.09
46942;BME280;32676;52.630;4.896;2022-11-20T00:39:00;96678.28;;;-0.61;78.38
46942;BME280;32676;52.630;4.896;2022-11-20T00:41:28;96658.91;;;-0.68;78.35
46942;BME280;32676;52.630;4.896;2022-11-20T00:43:55;96652.94;;;-0.69;78.34
46942;BME280;32676;52.630;4.896;2022-11-20T00:46:24;96630.97;;;-0.76;78.47
46942;BME280;32676;52.630;4.896;2022-11-20T00:48:52;96627.56;;;-0.77;78.49
46942;BME280;32676;52.630;4.896;2022-11-20T00:51:20;96623.31;;;-0.78;78.45
46942;BME280;32676;52.630;4.896;2022-11-20T00:53:47;96622.50;;;-0.78;78.49
46942;BME280;32676;52.630;4.896;2022-11-20T00:56:15;96618.34;;;-0.81;78.60
46942;BME280;32676;52.630;4.896;2022-11-20T00:58:44;96613.19;;;-0.81;78.65
46942;BME280;32676;52.630;4.896;2022-11-20T01:01:13;96609.03;;;-0.83;78.57
46942;BME280;32676;52.630;4.896;2022-11-20T01:03:43;96591.25;;;-0.88;78.61
46942;BME280;32676;52.630;4.896;2022-11-20T01:06:13;96569.50;;;-0.98;78.78
46942;BME280;32676;52.630;4.896;2022-11-20T01:08:40;96577.63;;;-0.90;78.65
46942;BME280;32676;52.630;4.896;2022-11-20T01:11:08;96576.03;;;-0.92;78.58
46942;BME280;32676;52.630;4.896;2022-11-20T01:13:35;96587.19;;;-0.92;78.65
46942;BME280;32676;52.630;4.896;2022-11-20T01:16:07;96592.09;;;-0.87;78.69
46942;BME280;32676;52.630;4.896;2022-11-20T01:18:35;96596.38;;;-0.88;78.77
46942;BME280;32676;52.630;4.896;2022-11-20T01:21:06;96587.91;;;-0.90;78.80
46942;BME280;32676;52.630;4.896;2022-11-20T01:23:36;96579.44;;;-0.92;78.85
46942;BME280;32676;52.630;4.896;2022-11-20T01:26:05;96593.00;;;-0.88;78.72
46942;BME280;32676;52.630;4.896;2022-11-20T01:28:32;96598.06;;;-0.87;78.70
46942;BME280;32676;52.630;4.896;2022-11-20T01:30:59;96610.88;;;-0.85;78.75
46942;BME280;32676;52.630;4.896;2022-11-20T01:33:26;96597.31;;;-0.89;78.74
46942;BME280;32676;52.630;4.896;2022-11-20T01:35:53;96591.44;;;-0.91;78.79
46942;BME280;32676;52.630;4.896;2022-11-20T01:38:19;96582.09;;;-0.93;78.66
46942;BME280;32676;52.630;4.896;2022-11-20T01:40:55;96582.91;;;-0.93;78.63
46942;BME280;32676;52.630;4.896;2022-11-20T01:43:21;96571.94;;;-0.97;78.59
46942;BME280;32676;52.630;4.896;2022-11-20T01:46:13;96549.84;;;-1.01;78.43
46942;BME280;32676;52.630;4.896;2022-11-20T01:48:45;96548.28;;;-1.03;78.41
46942;BME280;32676;52.630;4.896;2022-11-20T01:51:18;96552.50;;;-1.02;78.23
46942;BME280;32676;52.630;4.896;2022-11-20T01:53:48;96539.91;;;-1.07;78.63
46942;BME280;32676;52.630;4.896;2022-11-20T01:56:17;96550.88;;;-1.03;78.39
46942;BME280;32676;52.630;4.896;2022-11-20T01:58:52;96548.22;;;-1.02;78.36
46942;BME280;32676;52.630;4.896;2022-11-20T02:01:21;96567.81;;;-0.99;78.37
46942;BME280;32676;52.630;4.896;2022-11-20T02:03:49;96567.81;;;-0.99;78.43
46942;BME280;32676;52.630;4.896;2022-11-20T02:06:19;96569.66;;;-1.01;78.55
46942;BME280;32676;52.630;4.896;2022-11-20T02:08:48;96562.91;;;-1.04;78.53
46942;BME280;32676;52.630;4.896;2022-11-20T02:11:16;96552.88;;;-1.08;78.47
46942;BME280;32676;52.630;4.896;2022-11-20T02:13:42;96548.53;;;-1.08;78.54
46942;BME280;32676;52.630;4.896;2022-11-20T02:16:10;96541.66;;;-1.07;78.55
46942;BME280;32676;52.630;4.896;2022-11-20T02:18:38;96529.09;;;-1.13;78.45
46942;BME280;32676;52.630;4.896;2022-11-20T02:21:07;96518.78;;;-1.13;78.45
46942;BME280;32676;52.630;4.896;2022-11-20T02:23:38;96516.28;;;-1.15;78.46
46942;BME280;32676;52.630;4.896;2022-11-20T02:26:10;96508.66;;;-1.17;78.64
46942;BME280;32676;52.630;4.896;2022-11-20T02:28:38;96510.47;;;-1.19;78.69
46942;BME280;32676;52.630;4.896;2022-11-20T02:31:05;96512.97;;;-1.17;78.48
46942;BME280;32676;52.630;4.896;2022-11-20T02:33:32;96529.09;;;-1.13;78.65
46942;BME280;32676;52.630;4.896;2022-11-20T02:35:59;96523.94;;;-1.13;78.76
46942;BME280;32676;52.630;4.896;2022-11-20T02:38:26;96518.22;;;-1.19;78.70
46942;BME280;32676;52.630;4.896;2022-11-20T02:40:52;96518.97;;;-1.17;78.63
46942;BME280;32676;52.630;4.896;2022-11-20T02:43:20;96514.72;;;-1.18;78.80
46942;BME280;32676;52.630;4.896;2022-11-20T02:45:46;96486.84;;;-1.25;78.84
46942;BME280;32676;52.630;4.896;2022-11-20T02:48:13;96483.41;;;-1.26;78.76
46942;BME280;32676;52.630;4.896;2022-11-20T02:50:40;96469.97;;;-1.31;78.74
46942;BME280;32676;52.630;4.896;2022-11-20T02:53:07;96468.31;;;-1.32;78.62
46942;BME280;32676;52.630;4.896;2022-11-20T02:55:34;96452.13;;;-1.34;78.74
46942;BME280;32676;52.630;4.896;2022-11-20T02:58:00;96444.56;;;-1.37;78.83
46942;BME280;32676;52.630;4.896;2022-11-20T03:00:28;96426.69;;;-1.40;78.81
46942;BME280;32676;52.630;4.896;2022-11-20T03:02:54;96419.97;;;-1.43;78.74
46942;BME280;32676;52.630;4.896;2022-11-20T03:05:21;96419.16;;;-1.43;78.94
46942;BME280;32676;52.630;4.896;2022-11-20T03:07:48;96413.34;;;-1.47;78.96
46942;BME280;32676;52.630;4.896;2022-11-20T03:10:15;96404.88;;;-1.49;79.05
46942;BME280;32676;52.630;4.896;2022-11-20T03:12:42;96404.69;;;-1.46;79.10
46942;BME280;32676;52.630;4.896;2022-11-20T03:15:09;96423.66;;;-1.47;79.07
46942;BME280;32676;52.630;4.896;2022-11-20T03:17:37;96431.28;;;-1.45;79.17
46942;BME280;32676;52.630;4.896;2022-11-20T03:20:05;96438.66;;;-1.39;79.21
46942;BME280;32676;52.630;4.896;2022-11-20T03:22:32;96452.34;;;-1.39;79.25
46942;BME280;32676;52.630;4.896;2022-11-20T03:24:58;96444.72;;;-1.40;79.18
46942;BME280;32676;52.630;4.896;2022-11-20T03:27:25;96434.59;;;-1.43;79.30
46942;BME280;32676;52.630;4.896;2022-11-20T03:29:51;96429.47;;;-1.43;79.25
46942;BME280;32676;52.630;4.896;2022-11-20T03:32:17;96431.28;;;-1.45;79.26
46942;BME280;32676;52.630;4.896;2022-11-20T03:34:45;96431.44;;;-1.48;79.03
46942;BME280;32676;52.630;4.896;2022-11-20T03:37:12;96432.94;;;-1.44;79.03
46942;BME280;32676;52.630;4.896;2022-11-20T03:39:38;96439.75;;;-1.43;79.07
46942;BME280;32676;52.630;4.896;2022-11-20T03:42:04;96435.44;;;-1.43;79.09
46942;BME280;32676;52.630;4.896;2022-11-20T03:44:51;96429.78;;;-1.49;79.09
46942;BME280;32676;52.630;4.896;2022-11-20T03:47:18;96441.41;;;-1.42;79.14
46942;BME280;32676;52.630;4.896;2022-11-20T03:49:46;96447.47;;;-1.43;79.21
46942;BME280;32676;52.630;4.896;2022-11-20T03:52:12;96448.22;;;-1.41;79.39
46942;BME280;32676;52.630;4.896;2022-11-20T03:54:38;96459.25;;;-1.39;79.27
46942;BME280;32676;52.630;4.896;2022-11-20T03:57:05;96458.34;;;-1.38;79.23
46942;BME280;32676;52.630;4.896;2022-11-20T03:59:31;96460.94;;;-1.38;79.20
46942;BME280;32676;52.630;4.896;2022-11-20T04:01:58;96460.16;;;-1.40;79.24
46942;BME280;32676;52.630;4.896;2022-11-20T04:04:24;96452.56;;;-1.42;79.34
46942;BME280;32676;52.630;4.896;2022-11-20T04:06:52;96451.69;;;-1.42;79.32
46942;BME280;32676;52.630;4.896;2022-11-20T04:09:18;96457.69;;;-1.42;79.18
46942;BME280;32676;52.630;4.896;2022-11-20T04:11:45;96452.56;;;-1.42;79.08
46942;BME280;32676;52.630;4.896;2022-11-20T04:14:14;96435.59;;;-1.46;79.21
46942;BME280;32676;52.630;4.896;2022-11-20T04:16:41;96439.19;;;-1.48;79.19
46942;BME280;32676;52.630;4.896;2022-11-20T04:19:10;96455.94;;;-1.41;79.04
46942;BME280;32676;52.630;4.896;2022-11-20T04:21:37;96476.47;;;-1.40;78.87
46942;BME280;32676;52.630;4.896;2022-11-20T04:24:05;96472.13;;;-1.39;78.97
46942;BME280;32676;52.630;4.896;2022-11-20T04:26:33;96470.38;;;-1.39;78.83
46942;BME280;32676;52.630;4.896;2022-11-20T04:29:00;96470.47;;;-1.40;78.94
46942;BME280;32676;52.630;4.896;2022-11-20T04:31:28;96469.56;;;-1.39;78.67
46942;BME280;32676;52.630;4.896;2022-11-20T04:33:55;96472.13;;;-1.39;78.72
46942;BME280;32676;52.630;4.896;2022-11-20T04:36:27;96469.72;;;-1.42;78.59
46942;BME280;32676;52.630;4.896;2022-11-20T04:38:56;96469.16;;;-1.47;78.68
46942;BME280;32676;52.630;4.896;2022-11-20T04:41:26;96466.25;;;-1.41;78.44
46942;BME280;32676;52.630;4.896;2022-11-20T04:43:54;96459.69;;;-1.47;78.26
46942;BME280;32676;52.630;4.896;2022-11-20T04:46:24;96458.69;;;-1.44;78.37
46942;BME280;32676;52.630;4.896;2022-11-20T04:48:51;96450.22;;;-1.46;78.30
46942;BME280;32676;52.630;4.896;2022-11-20T04:51:18;96440.84;;;-1.47;78.15
46942;BME280;32676;52.630;4.896;2022-11-20T04:53:45;96441.81;;;-1.50;78.14
46942;BME280;32676;52.630;4.896;2022-11-20T04:56:13;96435.13;;;-1.52;78.28
46942;BME280;32676;52.630;4.896;2022-11-20T04:58:41;96414.69;;;-1.56;78.19
46942;BME280;32676;52.630;4.896;2022-11-20T05:01:10;96413.94;;;-1.58;78.16
46942;BME280;32676;52.630;4.896;2022-11-20T05:03:36;96409.69;;;-1.59;78.39
46942;BME280;32676;52.630;4.896;2022-11-20T05:06:04;96403.81;;;-1.61;78.16
46942;BME280;32676;52.630;4.896;2022-11-20T05:08:31;96396.09;;;-1.61;78.37
46942;BME280;32676;52.630;4.896;2022-11-20T05:11:00;96357.78;;;-1.81;78.41
46942;BME280;32676;52.630;4.896;2022-11-20T05:13:26;96355.78;;;-1.76;78.46
46942;BME280;32676;52.630;4.896;2022-11-20T05:15:54;96357.25;;;-1.72;78.54
46942;BME280;32676;52.630;4.896;2022-11-20T05:18:21;96353.94;;;-1.74;78.47
46942;BME280;32676;52.630;4.896;2022-11-20T05:20:54;96350.63;;;-1.76;78.61
46942;BME280;32676;52.630;4.896;2022-11-20T05:23:21;96330.38;;;-1.82;78.52
46942;BME280;32676;52.630;4.896;2022-11-20T05:25:47;96333.88;;;-1.83;78.70
46942;BME280;32676;52.630;4.896;2022-11-20T05:28:13;96340.50;;;-1.79;78.73
46942;BME280;32676;52.630;4.896;2022-11-20T05:30:40;96338.84;;;-1.80;78.80
46942;BME280;32676;52.630;4.896;2022-11-20T05:33:08;96333.69;;;-1.80;78.62
46942;BME280;32676;52.630;4.896;2022-11-20T05:35:35;96332.03;;;-1.81;78.69
46942;BME280;32676;52.630;4.896;2022-11-20T05:38:01;96316.94;;;-1.87;78.77
46942;BME280;32676;52.630;4.896;2022-11-20T05:40:28;96322.94;;;-1.87;78.69
46942;BME280;32676;52.630;4.896;2022-11-20T05:42:54;96313.63;;;-1.89;78.81
46942;BME280;32676;52.630;4.896;2022-11-20T05:45:21;96317.78;;;-1.87;78.95
46942;BME280;32676;52.630;4.896;2022-11-20T05:47:47;96293.56;;;-1.99;79.16
46942;BME280;32676;52.630;4.896;2022-11-20T05:50:15;96303.31;;;-1.89;78.98
46942;BME280;32676;52.630;4.896;2022-11-20T05:52:41;96298.53;;;-1.96;79.07
46942;BME280;32676;52.630;4.896;2022-11-20T05:55:08;96311.16;;;-1.91;79.10
46942;BME280;32676;52.630;4.896;2022-11-20T05:57:35;96300.09;;;-1.93;79.27
46942;BME280;32676;52.630;4.896;2022-11-20T06:00:02;96304.41;;;-1.94;79.18
46942;BME280;32676;52.630;4.896;2022-11-20T06:02:30;96300.38;;;-1.98;79.35
46942;BME280;32676;52.630;4.896;2022-11-20T06:04:56;96313.63;;;-1.89;79.22
46942;BME280;32676;52.630;4.896;2022-11-20T06:07:24;96328.81;;;-1.85;79.13
46942;BME280;32676;52.630;4.896;2022-11-20T06:09:50;96342.50;;;-1.84;79.17
46942;BME280;32676;52.630;4.896;2022-11-20T06:12:17;96364.41;;;-1.77;79.06
46942;BME280;32676;52.630;4.896;2022-11-20T06:14:43;96374.53;;;-1.74;79.19
46942;BME280;32676;52.630;4.896;2022-11-20T06:17:10;96378.19;;;-1.78;78.91
46942;BME280;32676;52.630;4.896;2022-11-20T06:19:36;96414.38;;;-1.65;78.75
46942;BME280;32676;52.630;4.896;2022-11-20T06:22:02;96426.16;;;-1.61;78.88
46942;BME280;32676;52.630;4.896;2022-11-20T06:24:30;96427.13;;;-1.64;78.70
46942;BME280;32676;52.630;4.896;2022-11-20T06:26:57;96439.91;;;-1.62;78.60
46942;BME280;32676;52.630;4.896;2022-11-20T06:29:23;96455.88;;;-1.56;78.43
46942;BME280;32676;52.630;4.896;2022-11-20T06:31:49;96467.66;;;-1.51;78.31
46942;BME280;32676;52.630;4.896;2022-11-20T06:34:16;96484.59;;;-1.47;78.34
46942;BME280;32676;52.630;4.896;2022-11-20T06:36:42;96493.06;;;-1.45;78.31
46942;BME280;32676;52.630;4.896;2022-11-20T06:39:09;96490.75;;;-1.50;78.11
46942;BME280;32676;52.630;4.896;2022-11-20T06:41:37;96474.03;;;-1.59;77.97
46942;BME280;32676;52.630;4.896;2022-11-20T06:44:04;96495.06;;;-1.50;77.83
46942;BME280;32676;52.630;4.896;2022-11-20T06:46:30;96502.44;;;-1.44;77.84
46942;BME280;32676;52.630;4.896;2022-11-20T06:48:57;96506.69;;;-1.43;77.83
46942;BME280;32676;52.630;4.896;2022-11-20T06:51:24;96490.22;;;-1.57;77.72
46942;BME280;32676;52.630;4.896;2022-11-20T06:53:50;96509.19;;;-1.42;77.68
46942;BME280;32676;52.630;4.896;2022-11-20T06:56:17;96519.38;;;-1.40;77.49
46942;BME280;32676;52.630;4.896;2022-11-20T06:58:44;96530.44;;;-1.38;77.59
46942;BME280;32676;52.630;4.896;2022-11-20T07:01:13;96515.50;;;-1.47;77.29
46942;BME280;32676;52.630;4.896;2022-11-20T07:03:40;96549.22;;;-1.36;77.59
46942;BME280;32676;52.630;4.896;2022-11-20T07:06:07;96561.75;;;-1.30;77.55
46942;BME280;32676;52.630;4.896;2022-11-20T07:08:35;96566.00;;;-1.29;77.39
46942;BME280;32676;52.630;4.896;2022-11-20T07:11:04;96593.16;;;-1.23;77.62
46942;BME280;32676;52.630;4.896;2022-11-20T07:13:31;96589.72;;;-1.24;77.54
46942;BME280;32676;52.630;4.896;2022-11-20T07:16:01;96599.06;;;-1.21;77.66
46942;BME280;32676;52.630;4.896;2022-11-20T07:18:28;96595.06;;;-1.27;77.75
46942;BME280;32676;52.630;4.896;2022-11-20T07:20:54;96611.84;;;-1.20;77.65
46942;BME280;32676;52.630;4.896;2022-11-20T07:23:21;96610.03;;;-1.18;77.64
46942;BME280;32676;52.630;4.896;2022-11-20T07:25:47;96611.84;;;-1.20;77.42
46942;BME280;32676;52.630;4.896;2022-11-20T07:28:13;96616.16;;;-1.20;77.51
46942;BME280;32676;52.630;4.896;2022-11-20T07:30:40;96594.88;;;-1.24;77.57
46942;BME280;32676;52.630;4.896;2022-11-20T07:33:08;96598.38;;;-1.25;77.46
46942;BME280;32676;52.630;4.896;2022-11-20T07:35:34;96612.75;;;-1.21;77.55
46942;BME280;32676;52.630;4.896;2022-11-20T07:38:01;96617.00;;;-1.20;77.60
46942;BME280;32676;52.630;4.896;2022-11-20T07:40:27;96633.94;;;-1.16;77.61
46942;BME280;32676;52.630;4.896;2022-11-20T07:42:54;96642.44;;;-1.13;77.80
46942;BME280;32676;52.630;4.896;2022-11-20T07:45:23;96669.59;;;-1.08;77.60
46942;BME280;32676;52.630;4.896;2022-11-20T07:47:50;96709.50;;;-0.99;77.58
46942;BME280;32676;52.630;4.896;2022-11-20T07:50:18;96752.69;;;-0.87;77.50
46942;BME280;32676;52.630;4.896;2022-11-20T07:52:45;96786.78;;;-0.82;77.59
46942;BME280;32676;52.630;4.896;2022-11-20T07:55:12;96817.03;;;-0.69;77.51
46942;BME280;32676;52.630;4.896;2022-11-20T07:57:39;96857.81;;;-0.60;77.47
46942;BME280;32676;52.630;4.896;2022-11-20T08:00:08;96868.28;;;-0.63;77.33
46942;BME280;32676;52.630;4.896;2022-11-20T08:02:36;96915.59;;;-0.47;77.21
46942;BME280;32676;52.630;4.896;2022-11-20T08:05:03;96934.25;;;-0.42;77.13
46942;BME280;32676;52.630;4.896;2022-11-20T08:07:36;96959.63;;;-0.34;77.05
46942;BME280;32676;52.630;4.896;2022-11-20T08:10:03;96978.38;;;-0.30;77.19
46942;BME280;32676;52.630;4.896;2022-11-20T08:12:30;97014.00;;;-0.21;76.82
46942;BME280;32676;52.630;4.896;2022-11-20T08:15:14;97061.50;;;-0.08;76.62
46942;BME280;32676;52.630;4.896;2022-11-20T08:17:40;97082.00;;;-0.05;76.51
46942;BME280;32676;52.630;4.896;2022-11-20T08:20:08;97088.06;;;-0.06;76.14
46942;BME280;32676;52.630;4.896;2022-11-20T08:22:36;97108.34;;;0.02;76.11
46942;BME280;32676;52.630;4.896;2022-11-20T08:25:03;97119.34;;;0.06;75.99
46942;BME280;32676;52.630;4.896;2022-11-20T08:27:31;97133.16;;;0.05;75.75
46942;BME280;32676;52.630;4.896;2022-11-20T08:29:57;97150.00;;;0.12;75.74
46942;BME280;32676;52.630;4.896;2022-11-20T08:32:25;97177.31;;;0.16;75.68
46942;BME280;32676;52.630;4.896;2022-11-20T08:34:51;97202.84;;;0.22;75.52
46942;BME280;32676;52.630;4.896;2022-11-20T08:37:18;97223.06;;;0.31;75.56
46942;BME280;32676;52.630;4.896;2022-11-20T08:39:45;97231.56;;;0.33;75.60
46942;BME280;32676;52.630;4.896;2022-11-20T08:42:12;97230.81;;;0.31;75.53
46942;BME280;32676;52.630;4.896;2022-11-20T08:44:38;97225.63;;;0.31;75.55
46942;BME280;32676;52.630;4.896;2022-11-20T08:47:05;97225.63;;;0.31;75.50
46942;BME280;32676;52.630;4.896;2022-11-20T08:49:31;97236.72;;;0.33;75.69
46942;BME280;32676;52.630;4.896;2022-11-20T08:51:58;97245.22;;;0.35;75.71
46942;BME280;32676;52.630;4.896;2022-11-20T08:54:24;97243.84;;;0.28;75.54
46942;BME280;32676;52.630;4.896;2022-11-20T08:56:52;97272.41;;;0.43;75.80
46942;BME280;32676;52.630;4.896;2022-11-20T08:59:19;97311.59;;;0.51;75.80
46942;BME280;32676;52.630;4.896;2022-11-20T09:01:45;97345.66;;;0.59;75.71
46942;BME280;32676;52.630;4.896;2022-11-20T09:04:12;97359.34;;;0.61;75.63
46942;BME280;32676;52.630;4.896;2022-11-20T09:06:39;97383.97;;;0.68;75.60
46942;BME280;32676;52.630;4.896;2022-11-20T09:09:06;97395.06;;;0.70;75.43
46942;BME280;32676;52.630;4.896;2022-11-20T09:11:32;97414.97;;;0.68;75.35
46942;BME280;32676;52.630;4.896;2022-11-20T09:14:01;97451.22;;;0.86;75.38
46942;BME280;32676;52.630;4.896;2022-11-20T09:16:29;97465.78;;;0.87;75.16
46942;BME280;32676;52.630;4.896;2022-11-20T09:18:56;97443.66;;;0.81;75.14
46942;BME280;32676;52.630;4.896;2022-11-20T09:21:22;97450.44;;;0.84;74.97
46942;BME280;32676;52.630;4.896;2022-11-20T09:23:49;97452.41;;;0.79;74.99
46942;BME280;32676;52.630;4.896;2022-11-20T09:26:16;97493.94;;;0.93;74.75
46942;BME280;32676;52.630;4.896;2022-11-20T09:28:42;97528.00;;;1.01;74.57
46942;BME280;32676;52.630;4.896;2022-11-20T09:31:18;97567.13;;;1.12;74.49
46942;BME280;32676;52.630;4.896;2022-11-20T09:33:46;97592.72;;;1.19;74.05
46942;BME280;32676;52.630;4.896;2022-11-20T09:36:13;97614.03;;;1.24;74.14
46942;BME280;32676;52.630;4.896;2022-11-20T09:38:39;97616.75;;;1.21;73.99
46942;BME280;32676;52.630;4.896;2022-11-20T09:41:19;97637.00;;;1.30;73.73
46942;BME280;32676;52.630;4.896;2022-11-20T09:43:54;97656.56;;;1.36;73.65
46942;BME280;32676;52.630;4.896;2022-11-20T09:46:28;97698.53;;;1.42;73.45
46942;BME280;32676;52.630;4.896;2022-11-20T09:49:07;97711.25;;;1.47;73.29
46942;BME280;32676;52.630;4.896;2022-11-20T09:51:45;97728.28;;;1.51;73.16
46942;BME280;32676;52.630;4.896;2022-11-20T09:54:16;97746.22;;;1.56;73.03
46942;BME280;32676;52.630;4.896;2022-11-20T09:56:46;97771.78;;;1.62;72.82
46942;BME280;32676;52.630;4.896;2022-11-20T09:59:27;97805.94;;;1.70;73.10
46942;BME280;32676;52.630;4.896;2022-11-20T10:01:58;97802.53;;;1.69;72.82
46942;BME280;32676;52.630;4.896;2022-11-20T10:04:25;97831.53;;;1.76;72.89
46942;BME280;32676;52.630;4.896;2022-11-20T10:06:59;97840.50;;;1.69;72.75
46942;BME280;32676;52.630;4.896;2022-11-20T10:09:29;97862.34;;;1.82;72.75
46942;BME280;32676;52.630;4.896;2022-11-20T10:12:07;97862.47;;;1.79;72.69
46942;BME280;32676;52.630;4.896;2022-11-20T10:14:46;97876.06;;;1.84;72.76
46942;BME280;32676;52.630;4.896;2022-11-20T10:17:21;97904.13;;;1.94;72.86
46942;BME280;32676;52.630;4.896;2022-11-20T10:20:08;97947.75;;;2.03;72.78
46942;BME280;32676;52.630;4.896;2022-11-20T10:22:48;97964.81;;;2.07;72.83
46942;BME280;32676;52.630;4.896;2022-11-20T10:25:20;97970.88;;;2.07;72.76
46942;BME280;32676;52.630;4.896;2022-11-20T10:28:02;97999.84;;;2.16;72.63
46942;BME280;32676;52.630;4.896;2022-11-20T10:30:37;98029.81;;;2.21;72.55
46942;BME280;32676;52.630;4.896;2022-11-20T10:33:13;98018.03;;;2.14;72.37
46942;BME280;32676;52.630;4.896;2022-11-20T10:35:44;98032.34;;;2.23;72.35
46942;BME280;32676;52.630;4.896;2022-11-20T10:38:16;98030.09;;;2.15;72.12
46942;BME280;32676;52.630;4.896;2022-11-20T10:40:47;98046.28;;;2.20;72.30
46942;BME280;32676;52.630;4.896;2022-11-20T10:43:18;98072.56;;;2.32;72.28
46942;BME280;32676;52.630;4.896;2022-11-20T10:45:50;98098.19;;;2.38;72.24
46942;BME280;32676;52.630;4.896;2022-11-20T10:48:23;98112.69;;;2.42;72.03
46942;BME280;32676;52.630;4.896;2022-11-20T10:51:10;98129.03;;;2.44;72.18
46942;BME280;32676;52.630;4.896;2022-11-20T10:53:47;98135.78;;;2.48;72.23
46942;BME280;32676;52.630;4.896;2022-11-20T10:56:20;98134.06;;;2.47;72.36
46942;BME280;32676;52.630;4.896;2022-11-20T10:59:03;98122.22;;;2.41;72.58
46942;BME280;32676;52.630;4.896;2022-11-20T11:01:30;98129.03;;;2.44;72.64
46942;BME280;32676;52.630;4.896;2022-11-20T11:03:59;98125.66;;;2.42;72.92
46942;BME280;32676;52.630;4.896;2022-11-20T11:06:30;98146.16;;;2.48;72.95
46942;BME280;32676;52.630;4.896;2022-11-20T11:09:01;98149.63;;;2.47;73.13
46942;BME280;32676;52.630;4.896;2022-11-20T11:11:31;98153.00;;;2.49;73.14
46942;BME280;32676;52.630;4.896;2022-11-20T11:14:05;98123.47;;;2.33;73.36
46942;BME280;32676;52.630;4.896;2022-11-20T11:16:32;98168.41;;;2.52;73.37
46942;BME280;32676;52.630;4.896;2022-11-20T11:19:12;98201.72;;;2.61;73.60
46942;BME280;32676;52.630;4.896;2022-11-20T11:21:45;98222.22;;;2.67;73.94
46942;BME280;32676;52.630;4.896;2022-11-20T11:24:20;98238.56;;;2.69;73.94
46942;BME280;32676;52.630;4.896;2022-11-20T11:26:51;98240.22;;;2.71;74.27
46942;BME280;32676;52.630;4.896;2022-11-20T11:29:18;98270.16;;;2.78;74.44
46942;BME280;32676;52.630;4.896;2022-11-20T11:31:44;98267.59;;;2.78;74.35
46942;BME280;32676;52.630;4.896;2022-11-20T11:34:14;98283.97;;;2.78;74.68
46942;BME280;32676;52.630;4.896;2022-11-20T11:36:41;98306.16;;;2.85;74.79
46942;BME280;32676;52.630;4.896;2022-11-20T11:39:13;98296.88;;;2.80;74.71
46942;BME280;32676;52.630;4.896;2022-11-20T11:41:40;98316.34;;;2.90;74.82
46942;BME280;32676;52.630;4.896;2022-11-20T11:44:15;98323.41;;;2.86;74.91
46942;BME280;32676;52.630;4.896;2022-11-20T11:47:02;98327.50;;;2.92;75.08
46942;BME280;32676;52.630;4.896;2022-11-20T11:49:31;98336.06;;;2.94;75.29
46942;BME280;32676;52.630;4.896;2022-11-20T11:52:04;98345.53;;;2.95;75.33
46942;BME280;32676;52.630;4.896;2022-11-20T11:54:38;98356.69;;;2.97;75.62
46942;BME280;32676;52.630;4.896;2022-11-20T11:57:11;98341.38;;;2.91;75.71
46942;BME280;32676;52.630;4.896;2022-11-20T11:59:46;98329.59;;;2.84;75.98
46942;BME280;32676;52.630;4.896;2022-11-20T12:02:29;98363.53;;;2.98;76.10
46942;BME280;32676;52.630;4.896;2022-11-20T12:05:02;98371.28;;;3.00;76.26
46942;BME280;32676;52.630;4.896;2022-11-20T12:07:38;98372.50;;;2.91;76.57
46942;BME280;32676;52.630;4.896;2022-11-20T12:10:14;98386.13;;;2.96;76.96
46942;BME280;32676;52.630;4.896;2022-11-20T12:12:44;98409.91;;;3.07;77.04
46942;BME280;32676;52.630;4.896;2022-11-20T12:15:25;98445.84;;;3.17;77.35
46942;BME280;32676;52.630;4.896;2022-11-20T12:17:52;98456.34;;;3.14;77.28
46942;BME280;32676;52.630;4.896;2022-11-20T12:20:22;98458.16;;;3.12;77.42
46942;BME280;32676;52.630;4.896;2022-11-20T12:22:54;98481.13;;;3.21;77.45
46942;BME280;32676;52.630;4.896;2022-11-20T12:25:27;98502.56;;;3.26;77.57
46942;BME280;32676;52.630;4.896;2022-11-20T12:28:18;98526.31;;;3.37;77.75
46942;BME280;32676;52.630;4.896;2022-11-20T12:30:57;98552.94;;;3.42;77.80
46942;BME280;32676;52.630;4.896;2022-11-20T12:33:40;98567.59;;;3.43;77.60
46942;BME280;32676;52.630;4.896;2022-11-20T12:36:19;98544.66;;;3.33;77.82
46942;BME280;32676;52.630;4.896;2022-11-20T12:39:15;98577.88;;;3.46;77.87
46942;BME280;32676;52.630;4.896;2022-11-20T12:42:05;98568.69;;;3.38;78.30
46942;BME280;32676;52.630;4.896;2022-11-20T12:45:10;98604.56;;;3.50;77.97
46942;BME280;32676;52.630;4.896;2022-11-20T12:47:57;98641.28;;;3.63;78.13
46942;BME280;32676;52.630;4.896;2022-11-20T12:50:35;98658.47;;;3.65;78.08
46942;BME280;32676;52.630;4.896;2022-11-20T12:53:11;98665.44;;;3.65;78.17
46942;BME280;32676;52.630;4.896;2022-11-20T12:55:48;98653.47;;;3.61;78.36
46942;BME280;32676;52.630;4.896;2022-11-20T12:58:22;98631.41;;;3.49;78.28
46942;BME280;32676;52.630;4.896;2022-11-20T13:00:56;98660.34;;;3.62;78.35
46942;BME280;32676;52.630;4.896;2022-11-20T13:03:36;98645.78;;;3.58;78.40
46942;BME280;32676;52.630;4.896;2022-11-20T13:06:10;98620.97;;;3.51;78.53
46942;BME280;32676;52.630;4.896;2022-11-20T13:08:40;98623.34;;;3.57;78.56
46942;BME280;32676;52.630;4.896;2022-11-20T13:11:14;98635.34;;;3.59;78.81
46942;BME280;32676;52.630;4.896;2022-11-20T13:14:07;98624.50;;;3.50;78.97
46942;BME280;32676;52.630;4.896;2022-11-20T13:16:41;98639.72;;;3.59;79.11
46942;BME280;32676;52.630;4.896;2022-11-20T13:19:13;98625.16;;;3.55;79.23